Accueil
METAR-TAF:

METAR-TAF

Aéroports :

Aéroport d'Eindhoven

Eindhoven, Pays-Bas

latitude: 51-27N, longitude: 005-25E, altitude: 23 m

Observation

Le bulletin a été fait il y a 13 minutes, à 02:25 UTC
Vent 8 kt de nord-est, variant entre nord/nord-est et est
Température 2°C
Humidité 80%
Pression 1022 hPa
Visibilité 10 km ou plus
Ciel couvert à une hauteur de 1300 ft

METAR: EHEH 030225Z AUTO 05008KT 020V090 9999 OVC013 02/M01 Q1022 GRN

Heure: 03:38 (02:38 UTC)

Prévision

Le bulletin a été fait il y a 3 heures et 9 minutes, à 23:29 UTC
Prévision valable du 03 à 00 UTC au 04 à 06 UTC
Vent 9 kt de est/nord-est
Visibilité 10 km ou plus
Quelques nuages à une hauteur de 1400 ft
Ciel couvert à une hauteur de 1600 ft
Probabilité 30% :
Temporairement
du 03 à 00 UTC au 03 à 12 UTC
Nuages épars à une hauteur de 1200 ft
Ciel couvert à une hauteur de 1400 ft

TAF: EHEH 022329Z 0300/0406 06009KT 9999 FEW014 OVC016 PROB30 TEMPO 0300/0312 SCT012 OVC014

Observations et prévisions météorologiques de plus de 4000 aéroports (messages METAR et TAF).

Les stations disponibles sont représentées par des disques jaunes et rouges sur la carte.

Passer la souris dessus pour voir le nom de la station.

Cliquer dessus pour voir les observations et prévisions météorologiques.

Pour changer de carte: cliquez sur les boutons verts avec une croix noire pour zoomer, sur le bouton vert avec un tiret pour effectuer un zoom arrière, ou sur les flèches vertes pour les cartes adjacentes.


METAR-TAF: